Time;durP1;ratioP1;P1;durP2;ratioP2;P2;SDS_P1;SDS_P2;PMS_P1;PMS_P2;Temp;Humidity;BMP_temperature;BMP_pressure;BME280_temperature;BME280_humidity;BME280_pressure;Samples;Min_cycle;Max_cycle;Signal;HPM_P1;HPM_P2
2023/11/15 04:01:09;;;;;;;0.85;0.60;;;10.80;99.90;;;;;;5694232;23;20051;-78
2023/11/15 04:03:35;;;;;;;1.35;0.82;;;10.80;99.90;;;;;;4947142;28;20027;-77
2023/11/15 04:06:03;;;;;;;0.60;0.60;;;10.80;99.90;;;;;;4951013;28;20472;-78
2023/11/15 04:08:29;;;;;;;1.40;0.65;;;10.80;99.90;;;;;;4951109;28;20102;-77
2023/11/15 04:10:55;;;;;;;0.68;0.68;;;10.80;99.90;;;;;;4956087;28;20110;-77
2023/11/15 04:13:20;;;;;;;0.60;0.60;;;10.80;99.90;;;;;;4969038;28;20106;-78
2023/11/15 04:15:47;;;;;;;0.90;0.85;;;10.80;99.90;;;;;;4966289;28;20051;-78
2023/11/15 04:18:13;;;;;;;1.25;0.68;;;10.80;99.90;;;;;;4964293;28;20027;-78
2023/11/15 04:20:38;;;;;;;0.73;0.73;;;10.80;99.90;;;;;;4970104;28;20049;-78
2023/11/15 04:23:04;;;;;;;0.57;0.47;;;10.80;99.90;;;;;;4970181;28;20528;-79
2023/11/15 04:25:31;;;;;;;0.85;0.50;;;10.80;99.90;;;;;;4969140;28;20022;-78
2023/11/15 04:27:56;;;;;;;0.90;0.63;;;10.80;99.90;;;;;;4970880;28;20169;-78
2023/11/15 04:30:22;;;;;;;1.80;0.60;;;10.80;99.90;;;;;;4969895;28;20515;-78
2023/11/15 04:32:47;;;;;;;1.25;0.70;;;10.80;99.90;;;;;;4970371;28;20379;-76
2023/11/15 04:35:13;;;;;;;3.80;1.27;;;10.80;99.90;;;;;;4977748;28;20387;-78
2023/11/15 04:37:39;;;;;;;3.50;0.70;;;10.80;99.90;;;;;;4971668;28;20027;-78
2023/11/15 04:40:10;;;;;;;3.80;0.75;;;10.80;99.90;;;;;;4973937;28;20089;-78
2023/11/15 04:42:36;;;;;;;0.75;0.70;;;10.80;99.90;;;;;;4973953;28;20023;-77
2023/11/15 04:45:02;;;;;;;0.95;0.80;;;10.80;99.90;;;;;;4973644;28;20033;-78
2023/11/15 04:47:28;;;;;;;2.60;0.60;;;10.80;99.90;;;;;;4973868;28;20025;-78
2023/11/15 04:49:54;;;;;;;1.23;0.70;;;10.80;99.90;;;;;;4973830;28;20497;-77
2023/11/15 04:52:19;;;;;;;1.20;0.50;;;10.80;99.90;;;;;;4972948;28;20027;-76
2023/11/15 04:54:45;;;;;;;3.83;0.77;;;10.80;99.90;;;;;;4973871;28;20015;-78
2023/11/15 04:57:11;;;;;;;0.70;0.70;;;10.80;99.90;;;;;;4973842;28;20039;-77
2023/11/15 04:59:37;;;;;;;0.60;0.60;;;10.80;99.90;;;;;;4973270;28;20085;-78
2023/11/15 05:02:03;;;;;;;1.27;0.68;;;10.80;99.90;;;;;;4973338;28;20030;-78
2023/11/15 05:04:29;;;;;;;0.45;0.40;;;10.80;99.90;;;;;;4973504;28;20019;-78
2023/11/15 05:06:55;;;;;;;0.60;0.60;;;10.80;99.90;;;;;;4973288;28;20538;-77
2023/11/15 05:09:21;;;;;;;3.97;0.70;;;10.80;99.90;;;;;;4972286;28;20113;-78
2023/11/15 05:11:47;;;;;;;2.63;0.65;;;10.80;99.90;;;;;;4972097;28;20130;-78
2023/11/15 05:14:13;;;;;;;1.27;0.73;;;10.80;99.90;;;;;;4966212;28;20547;-78
2023/11/15 05:16:38;;;;;;;1.17;0.73;;;10.80;99.90;;;;;;4970255;28;20459;-78
2023/11/15 05:19:04;;;;;;;2.05;0.63;;;10.80;99.90;;;;;;4973355;28;20023;-78
2023/11/15 05:21:29;;;;;;;1.95;0.70;;;10.80;99.90;;;;;;4972396;28;20038;-78
2023/11/15 05:23:55;;;;;;;2.55;0.73;;;10.80;99.90;;;;;;4968285;28;20053;-79
2023/11/15 05:26:21;;;;;;;4.40;0.60;;;10.80;99.90;;;;;;4972028;28;20026;-78
2023/11/15 05:28:46;;;;;;;0.50;0.50;;;10.80;99.90;;;;;;4988147;28;20026;-78
2023/11/15 05:31:12;;;;;;;3.13;0.75;;;10.80;99.90;;;;;;4971052;28;20031;-78
2023/11/15 05:33:38;;;;;;;1.20;0.80;;;10.80;99.90;;;;;;4968620;28;20022;-78
2023/11/15 05:36:04;;;;;;;1.27;0.80;;;10.80;99.90;;;;;;4973224;28;20199;-77
2023/11/15 05:38:29;;;;;;;1.23;0.73;;;10.70;99.90;;;;;;4972866;28;20058;-79
2023/11/15 05:40:57;;;;;;;4.22;0.90;;;10.70;99.90;;;;;;4972940;28;20061;-77
2023/11/15 05:43:22;;;;;;;4.05;0.80;;;10.70;99.90;;;;;;4979002;28;20023;-78
2023/11/15 05:45:48;;;;;;;0.70;0.70;;;10.70;99.90;;;;;;4972062;28;20038;-78
2023/11/15 05:48:14;;;;;;;0.52;0.52;;;10.80;99.90;;;;;;4972518;28;20035;-77
2023/11/15 05:50:39;;;;;;;0.57;0.57;;;10.80;99.90;;;;;;4973034;28;20026;-77
2023/11/15 05:53:05;;;;;;;0.50;0.50;;;10.70;99.90;;;;;;4972791;28;20019;-78
2023/11/15 05:55:31;;;;;;;1.05;0.60;;;10.70;99.90;;;;;;4972408;28;20142;-78
2023/11/15 05:57:57;;;;;;;1.35;0.90;;;10.70;99.90;;;;;;4968986;28;20046;-78
2023/11/15 06:00:22;;;;;;;2.47;0.82;;;10.80;99.90;;;;;;4965526;28;20062;-77
2023/11/15 06:02:49;;;;;;;2.25;0.82;;;10.70;99.90;;;;;;4970583;28;20023;-78
2023/11/15 06:05:16;;;;;;;2.08;0.90;;;10.80;99.90;;;;;;4969075;28;20031;-77
2023/11/15 06:07:42;;;;;;;1.30;0.68;;;10.70;99.90;;;;;;4972859;28;20110;-78
2023/11/15 06:10:08;;;;;;;1.50;0.70;;;10.70;99.90;;;;;;4968823;28;20121;-78
2023/11/15 06:12:35;;;;;;;0.80;0.80;;;10.70;99.90;;;;;;4965545;28;20027;-78
2023/11/15 06:15:05;;;;;;;1.40;0.80;;;10.70;99.90;;;;;;4973094;28;20033;-78
2023/11/15 06:17:31;;;;;;;1.70;1.02;;;10.70;99.90;;;;;;4972207;28;20078;-78
2023/11/15 06:19:57;;;;;;;1.23;0.90;;;10.70;99.90;;;;;;4969898;28;20085;-78
2023/11/15 06:22:23;;;;;;;1.52;0.70;;;10.70;99.90;;;;;;4971944;28;20023;-78
2023/11/15 06:24:52;;;;;;;6.00;1.02;;;10.70;99.90;;;;;;4972211;28;20026;-78
2023/11/15 06:27:18;;;;;;;1.73;1.20;;;10.70;99.90;;;;;;4972047;28;20054;-78
2023/11/15 06:29:48;;;;;;;1.15;0.73;;;10.70;99.90;;;;;;4968477;28;20041;-77
2023/11/15 06:32:15;;;;;;;3.40;0.90;;;10.80;99.90;;;;;;4969634;28;20037;-78
2023/11/15 06:34:46;;;;;;;4.18;1.10;;;10.80;99.90;;;;;;4968242;28;20419;-79
2023/11/15 06:37:15;;;;;;;0.85;0.75;;;10.80;99.90;;;;;;4972052;28;20022;-78
2023/11/15 06:39:43;;;;;;;2.65;0.95;;;10.80;99.90;;;;;;4969933;28;20031;-77
2023/11/15 06:42:10;;;;;;;3.53;1.10;;;10.70;99.90;;;;;;4971424;28;20026;-77
2023/11/15 06:44:37;;;;;;;2.00;0.88;;;10.70;99.90;;;;;;4966713;28;20027;-80
2023/11/15 06:47:03;;;;;;;1.67;0.90;;;10.70;99.90;;;;;;4971742;28;20069;-80
2023/11/15 06:49:29;;;;;;;2.15;1.25;;;10.70;99.90;;;;;;4971558;28;20392;-80
2023/11/15 06:51:56;;;;;;;2.33;1.05;;;10.70;99.90;;;;;;4971728;28;20023;-80
2023/11/15 06:54:21;;;;;;;1.00;1.00;;;10.80;99.90;;;;;;4978166;28;20487;-81
2023/11/15 06:56:48;;;;;;;2.38;0.90;;;10.70;99.90;;;;;;4970248;28;20065;-80
2023/11/15 06:59:15;;;;;;;0.82;0.82;;;10.80;99.90;;;;;;4970388;28;20018;-80
2023/11/15 07:01:41;;;;;;;0.88;0.88;;;10.80;99.90;;;;;;4970431;28;20049;-77
2023/11/15 07:04:06;;;;;;;3.50;2.00;;;10.70;99.90;;;;;;4970204;28;20037;-78
2023/11/15 07:06:32;;;;;;;1.65;0.95;;;10.80;99.90;;;;;;4969476;28;20033;-78
2023/11/15 07:08:59;;;;;;;1.75;0.90;;;10.80;99.90;;;;;;4966438;28;20030;-77
2023/11/15 07:11:25;;;;;;;2.95;0.98;;;10.80;99.90;;;;;;4970738;28;20081;-77
2023/11/15 07:13:50;;;;;;;0.80;0.80;;;10.80;99.90;;;;;;4985817;28;20524;-78
2023/11/15 07:16:16;;;;;;;6.70;1.00;;;10.80;99.90;;;;;;4968854;28;20035;-78
2023/11/15 07:18:42;;;;;;;1.90;0.98;;;10.80;99.90;;;;;;4971073;28;20026;-78
2023/11/15 07:21:08;;;;;;;1.10;1.00;;;10.80;99.90;;;;;;4985408;28;20050;-78
2023/11/15 07:23:34;;;;;;;2.05;1.25;;;10.80;99.90;;;;;;4966903;28;20106;-79
2023/11/15 07:26:00;;;;;;;3.33;1.30;;;10.80;99.90;;;;;;4964686;28;20055;-78
2023/11/15 07:28:25;;;;;;;1.45;0.88;;;10.80;99.90;;;;;;4965938;28;20034;-78
2023/11/15 07:30:51;;;;;;;0.93;0.88;;;10.80;99.90;;;;;;4962156;28;20380;-77
2023/11/15 07:33:19;;;;;;;1.65;1.20;;;10.80;99.90;;;;;;4960569;28;20026;-78
2023/11/15 07:35:46;;;;;;;3.83;1.08;;;10.80;99.90;;;;;;4970006;28;20014;-79
2023/11/15 07:38:12;;;;;;;1.35;0.98;;;10.80;99.90;;;;;;4967985;28;20122;-78
2023/11/15 07:40:38;;;;;;;1.50;1.17;;;10.80;99.90;;;;;;4970093;28;20676;-78
2023/11/15 07:43:05;;;;;;;3.90;1.20;;;10.80;99.90;;;;;;4967144;28;20019;-77
2023/11/15 07:45:35;;;;;;;2.47;1.02;;;10.80;99.90;;;;;;4966925;28;20379;-78
2023/11/15 07:48:04;;;;;;;3.65;1.05;;;10.80;99.90;;;;;;4970250;28;20023;-78
2023/11/15 07:50:31;;;;;;;3.08;1.10;;;10.90;99.90;;;;;;4967984;28;20111;-79
2023/11/15 07:52:56;;;;;;;2.25;1.00;;;10.90;99.90;;;;;;4963340;28;20023;-78
2023/11/15 07:55:22;;;;;;;2.92;1.25;;;10.90;99.90;;;;;;4965521;28;20014;-78
2023/11/15 07:57:48;;;;;;;2.45;0.95;;;10.90;99.90;;;;;;4962991;28;20027;-77
2023/11/15 08:00:14;;;;;;;17.20;1.23;;;10.90;99.90;;;;;;4964514;28;20043;-78
2023/11/15 08:02:41;;;;;;;2.70;1.10;;;10.90;99.90;;;;;;4969702;28;20030;-78
2023/11/15 08:05:07;;;;;;;1.23;1.00;;;10.90;99.90;;;;;;4969634;28;20113;-78
2023/11/15 08:07:37;;;;;;;2.08;1.00;;;10.90;99.90;;;;;;4970123;28;20049;-77
2023/11/15 08:10:05;;;;;;;5.22;1.30;;;10.90;99.90;;;;;;4970469;28;20063;-78
2023/11/15 08:12:35;;;;;;;2.35;1.05;;;10.90;99.90;;;;;;4969919;28;20037;-78
2023/11/15 08:15:03;;;;;;;5.75;1.30;;;10.90;99.90;;;;;;4966666;28;20395;-78
2023/11/15 08:17:29;;;;;;;1.92;0.93;;;10.90;99.90;;;;;;4967407;28;20388;-79
2023/11/15 08:19:56;;;;;;;1.75;1.25;;;10.90;99.90;;;;;;4985176;28;20022;-78
2023/11/15 08:22:22;;;;;;;1.38;1.15;;;10.90;99.90;;;;;;4964744;28;20027;-78
2023/11/15 08:24:48;;;;;;;3.85;1.30;;;10.90;99.90;;;;;;4971361;28;20572;-78
2023/11/15 08:27:15;;;;;;;3.50;1.23;;;10.90;99.90;;;;;;4972024;28;20057;-77
2023/11/15 08:29:41;;;;;;;1.48;1.25;;;10.90;99.90;;;;;;4976128;28;20491;-77
2023/11/15 08:32:07;;;;;;;3.58;1.30;;;10.90;99.90;;;;;;4969859;28;20027;-77
2023/11/15 08:34:33;;;;;;;2.30;1.17;;;11.00;99.90;;;;;;4986178;28;20031;-76
2023/11/15 08:36:59;;;;;;;1.38;1.20;;;11.10;99.90;;;;;;4968387;28;20509;-79
2023/11/15 08:39:25;;;;;;;2.00;1.00;;;11.10;99.90;;;;;;4967674;28;20031;-80
2023/11/15 08:41:51;;;;;;;1.42;1.20;;;11.10;99.90;;;;;;4967077;28;20499;-79
2023/11/15 08:44:17;;;;;;;3.85;1.05;;;11.20;99.90;;;;;;4970037;28;20400;-80
2023/11/15 08:46:47;;;;;;;7.05;1.10;;;11.20;99.90;;;;;;4962511;28;20019;-81
2023/11/15 08:49:15;;;;;;;3.03;1.27;;;11.30;99.90;;;;;;4970494;28;20019;-80
2023/11/15 08:51:41;;;;;;;3.30;1.27;;;11.30;99.90;;;;;;4969159;28;20042;-80
2023/11/15 08:54:07;;;;;;;1.48;1.30;;;11.40;99.90;;;;;;4971376;28;20022;-80
2023/11/15 08:56:34;;;;;;;5.05;1.25;;;11.40;99.90;;;;;;4965582;28;20396;-80
2023/11/15 08:59:00;;;;;;;1.73;1.13;;;11.40;99.90;;;;;;4972520;28;20108;-80
2023/11/15 09:01:27;;;;;;;5.38;1.38;;;11.40;99.90;;;;;;4964323;28;20070;-79
2023/11/15 09:03:53;;;;;;;1.48;0.90;;;11.40;99.90;;;;;;4960133;28;20047;-80
2023/11/15 09:06:18;;;;;;;1.98;1.10;;;11.40;99.90;;;;;;4967300;28;20110;-78
2023/11/15 09:08:46;;;;;;;1.48;0.90;;;11.50;99.90;;;;;;4969718;28;20022;-79
2023/11/15 09:11:13;;;;;;;1.15;1.02;;;11.60;99.90;;;;;;4971007;28;20074;-78
2023/11/15 09:13:39;;;;;;;3.08;1.17;;;11.60;99.90;;;;;;4963497;28;20492;-79
2023/11/15 09:16:06;;;;;;;3.70;1.10;;;11.50;99.90;;;;;;4965843;28;20027;-79
2023/11/15 09:18:31;;;;;;;1.38;0.90;;;11.50;99.90;;;;;;4967826;28;20031;-78
2023/11/15 09:20:58;;;;;;;2.15;0.90;;;11.50;99.90;;;;;;4970373;28;20039;-77
2023/11/15 09:23:24;;;;;;;1.48;1.13;;;11.50;99.90;;;;;;4971202;28;20027;-78
2023/11/15 09:25:53;;;;;;;2.72;1.08;;;11.50;99.90;;;;;;4962840;28;20030;-79
2023/11/15 09:28:19;;;;;;;3.53;1.08;;;11.50;99.90;;;;;;4969946;28;20389;-77
2023/11/15 09:30:45;;;;;;;1.23;0.80;;;11.50;99.90;;;;;;4968332;28;20054;-78
2023/11/15 09:33:16;;;;;;;0.63;0.63;;;11.50;99.90;;;;;;4972073;28;20400;-79
2023/11/15 09:35:42;;;;;;;5.45;0.80;;;11.50;99.90;;;;;;4968079;28;20027;-79
2023/11/15 09:38:11;;;;;;;0.80;0.80;;;11.60;99.90;;;;;;4965337;28;20106;-81
2023/11/15 09:40:37;;;;;;;3.80;0.90;;;11.60;99.90;;;;;;4966589;28;20694;-77
2023/11/15 09:43:04;;;;;;;1.45;0.90;;;11.50;99.90;;;;;;4969268;28;20027;-79
2023/11/15 09:45:32;;;;;;;2.92;0.98;;;11.50;99.90;;;;;;4972066;28;20027;-77
2023/11/15 09:48:00;;;;;;;2.67;0.93;;;11.40;99.90;;;;;;4971543;28;20029;-79
2023/11/15 09:50:33;;;;;;;3.35;1.33;;;11.40;99.90;;;;;;4972807;28;20026;-77
2023/11/15 09:53:05;;;;;;;1.85;0.68;;;11.40;99.90;;;;;;4967103;28;20027;-78
2023/11/15 09:55:31;;;;;;;1.10;0.80;;;11.40;99.90;;;;;;4969984;28;20034;-79
2023/11/15 09:57:57;;;;;;;2.38;0.98;;;11.40;99.90;;;;;;4970471;28;20034;-79
2023/11/15 10:00:28;;;;;;;2.25;0.90;;;11.40;99.90;;;;;;4972276;28;20046;-78
2023/11/15 10:02:55;;;;;;;1.95;0.75;;;11.40;99.90;;;;;;4970333;28;20423;-79
2023/11/15 10:05:26;;;;;;;4.60;1.08;;;11.30;99.90;;;;;;4972276;28;20035;-79
2023/11/15 10:08:08;;;;;;;4.63;0.95;;;11.30;99.90;;;;;;4972030;28;20015;-78
2023/11/15 10:10:34;;;;;;;2.75;0.85;;;11.30;99.90;;;;;;4970732;28;20030;-79
2023/11/15 10:13:00;;;;;;;2.13;0.80;;;11.30;99.90;;;;;;4968623;28;20031;-79
2023/11/15 10:15:36;;;;;;;4.40;0.98;;;11.20;99.90;;;;;;4971922;28;20038;-78
2023/11/15 10:18:08;;;;;;;4.18;1.05;;;11.20;99.90;;;;;;4970401;28;20023;-78
2023/11/15 10:20:33;;;;;;;2.78;0.80;;;11.20;99.90;;;;;;4971359;28;20029;-79
2023/11/15 10:22:59;;;;;;;0.80;0.80;;;11.20;99.90;;;;;;4986472;28;20026;-79
2023/11/15 10:25:28;;;;;;;0.75;0.75;;;11.20;99.90;;;;;;4969617;28;20047;-78
2023/11/15 10:28:07;;;;;;;1.58;0.65;;;11.20;99.90;;;;;;4969680;28;20034;-78
2023/11/15 10:30:33;;;;;;;3.40;0.95;;;11.20;99.90;;;;;;4971386;28;20023;-79
2023/11/15 10:33:10;;;;;;;1.48;0.70;;;11.20;99.90;;;;;;4969915;28;20034;-78
2023/11/15 10:35:36;;;;;;;2.15;1.00;;;11.30;99.90;;;;;;4970898;28;20018;-78
2023/11/15 10:38:03;;;;;;;1.95;1.25;;;11.30;99.90;;;;;;4970064;28;20074;-78
2023/11/15 10:40:30;;;;;;;3.15;0.80;;;11.30;99.90;;;;;;4970555;28;20027;-78
2023/11/15 10:42:58;;;;;;;2.97;0.85;;;11.30;99.90;;;;;;4970251;28;20077;-78
2023/11/15 10:45:27;;;;;;;1.83;1.00;;;11.30;99.90;;;;;;4965052;28;20058;-78
2023/11/15 10:48:10;;;;;;;2.30;1.05;;;11.30;99.90;;;;;;4986000;28;20157;-78
2023/11/15 10:50:42;;;;;;;2.55;0.85;;;11.20;99.90;;;;;;4971222;28;20011;-78
2023/11/15 10:53:10;;;;;;;1.00;0.85;;;11.20;99.90;;;;;;4965502;28;20019;-78
2023/11/15 10:55:37;;;;;;;2.97;0.90;;;11.30;99.90;;;;;;4971449;28;20062;-79
2023/11/15 10:58:05;;;;;;;3.78;0.80;;;11.30;99.90;;;;;;4970450;28;20011;-77
2023/11/15 11:00:31;;;;;;;1.60;0.93;;;11.30;99.90;;;;;;4968911;28;20026;-79
2023/11/15 11:02:57;;;;;;;0.85;0.75;;;11.30;99.90;;;;;;4970857;28;20023;-78
2023/11/15 11:05:45;;;;;;;2.53;1.55;;;11.40;99.90;;;;;;4971055;28;20031;-78
2023/11/15 11:08:37;;;;;;;3.17;1.40;;;11.40;99.90;;;;;;4967980;28;20559;-77
2023/11/15 11:11:08;;;;;;;0.82;0.73;;;11.40;99.90;;;;;;4970658;28;20033;-79
2023/11/15 11:13:34;;;;;;;0.88;0.80;;;11.40;99.90;;;;;;4970539;28;20019;-79
2023/11/15 11:16:23;;;;;;;3.63;1.13;;;11.50;99.90;;;;;;4969628;28;20026;-79
2023/11/15 11:19:16;;;;;;;5.28;1.00;;;11.50;99.90;;;;;;4967469;28;20539;-78
2023/11/15 11:22:03;;;;;;;2.60;0.90;;;11.60;99.90;;;;;;4965160;28;20026;-80
2023/11/15 11:24:31;;;;;;;1.35;1.15;;;11.70;99.90;;;;;;4968500;28;20118;-81
2023/11/15 11:27:21;;;;;;;0.80;0.80;;;11.80;99.90;;;;;;4982849;28;20411;-80
2023/11/15 11:29:58;;;;;;;1.70;0.90;;;11.90;99.90;;;;;;4971151;28;20070;-80
2023/11/15 11:32:31;;;;;;;1.38;0.90;;;11.90;99.90;;;;;;4983238;28;20034;-81
2023/11/15 11:35:04;;;;;;;1.13;0.75;;;11.90;99.90;;;;;;4970684;28;20019;-80
2023/11/15 11:37:44;;;;;;;2.08;0.82;;;11.80;99.90;;;;;;4969693;28;20593;-79
2023/11/15 11:40:17;;;;;;;0.63;0.60;;;11.70;99.90;;;;;;4966722;28;20033;-78
2023/11/15 11:42:43;;;;;;;2.97;1.20;;;11.60;99.90;;;;;;4970541;28;20019;-78
2023/11/15 11:45:10;;;;;;;1.40;0.63;;;11.50;99.90;;;;;;4967214;28;20107;-79
2023/11/15 11:47:46;;;;;;;4.88;1.00;;;11.50;99.90;;;;;;4970384;28;20039;-79
2023/11/15 11:50:24;;;;;;;2.58;2.08;;;11.50;99.90;;;;;;4969617;28;20026;-77
2023/11/15 11:52:53;;;;;;;2.47;0.93;;;11.50;99.90;;;;;;4970725;28;20031;-76
2023/11/15 11:55:19;;;;;;;0.95;0.90;;;11.50;99.90;;;;;;4963081;28;20027;-78
2023/11/15 11:57:45;;;;;;;1.67;0.95;;;11.50;99.90;;;;;;4965463;28;20033;-79
2023/11/15 12:00:12;;;;;;;2.92;1.00;;;11.50;99.90;;;;;;4969960;28;20070;-77
2023/11/15 12:02:45;;;;;;;1.90;0.77;;;11.50;99.90;;;;;;4969539;28;20543;-79
2023/11/15 12:05:12;;;;;;;4.97;1.13;;;11.50;99.90;;;;;;4970438;28;20038;-77
2023/11/15 12:07:48;;;;;;;1.10;0.70;;;11.50;99.90;;;;;;4970584;28;20030;-78
2023/11/15 12:10:15;;;;;;;1.75;0.70;;;11.50;99.90;;;;;;4966843;28;20424;-79
2023/11/15 12:12:54;;;;;;;1.15;0.90;;;11.50;99.90;;;;;;4965103;28;21005;-81
2023/11/15 12:15:22;;;;;;;0.90;0.90;;;11.50;99.90;;;;;;4958626;28;20110;-81
2023/11/15 12:17:48;;;;;;;0.82;0.82;;;11.50;99.90;;;;;;4964544;28;20017;-80
2023/11/15 12:20:27;;;;;;;1.25;0.90;;;11.40;99.90;;;;;;4965169;28;20050;-81
2023/11/15 12:23:15;;;;;;;2.00;0.60;;;11.50;99.90;;;;;;4960114;28;20063;-78
2023/11/15 12:25:54;;;;;;;1.15;0.90;;;11.50;99.90;;;;;;4961537;28;20046;-77
2023/11/15 12:28:25;;;;;;;2.03;0.82;;;13.20;99.90;;;;;;4970723;28;20035;-75
2023/11/15 12:30:52;;;;;;;0.95;0.80;;;14.50;99.90;;;;;;4964577;28;20034;-77
2023/11/15 12:33:18;;;;;;;3.63;1.10;;;14.20;99.90;;;;;;4961613;28;20019;-77
2023/11/15 12:35:45;;;;;;;0.82;0.75;;;14.40;99.90;;;;;;4966198;28;20015;-77
2023/11/15 12:38:14;;;;;;;2.35;0.70;;;14.20;99.90;;;;;;4954536;28;20042;-77
2023/11/15 12:40:40;;;;;;;1.85;0.73;;;14.00;99.90;;;;;;4966524;28;20011;-77
2023/11/15 12:43:33;;;;;;;0.82;0.73;;;14.00;99.90;;;;;;4964155;28;20030;-78
2023/11/15 12:46:00;;;;;;;0.65;0.50;;;14.20;99.90;;;;;;4961559;28;20389;-78
2023/11/15 12:48:25;;;;;;;0.60;0.60;;;14.20;95.90;;;;;;4965189;28;20492;-77
2023/11/15 12:51:02;;;;;;;2.38;0.57;;;13.90;99.90;;;;;;4965871;28;20029;-77
2023/11/15 12:53:31;;;;;;;1.65;0.88;;;13.80;99.90;;;;;;4961181;28;20539;-76
2023/11/15 12:55:57;;;;;;;2.20;0.70;;;13.90;99.90;;;;;;4964903;28;20042;-76
2023/11/15 12:58:29;;;;;;;1.73;0.70;;;14.50;99.90;;;;;;4979196;28;20019;-76
2023/11/15 13:01:01;;;;;;;0.45;0.45;;;14.80;99.60;;;;;;4965829;28;20106;-75
2023/11/15 13:03:33;;;;;;;1.35;0.98;;;14.90;99.70;;;;;;4969480;28;20066;-76
2023/11/15 13:06:19;;;;;;;2.20;0.65;;;15.00;99.90;;;;;;4962875;28;20027;-75
2023/11/15 13:08:45;;;;;;;0.82;0.52;;;15.00;99.90;;;;;;4964309;28;20823;-76
2023/11/15 13:11:13;;;;;;;0.88;0.70;;;15.00;99.90;;;;;;4967146;28;20050;-76
2023/11/15 13:13:39;;;;;;;1.60;0.70;;;15.10;99.90;;;;;;4957914;28;21770;-76
2023/11/15 13:16:06;;;;;;;2.20;0.60;;;15.10;99.90;;;;;;4964570;28;20432;-76
2023/11/15 13:18:32;;;;;;;1.63;0.70;;;15.10;99.90;;;;;;4961993;28;20027;-76
2023/11/15 13:20:58;;;;;;;3.40;0.70;;;15.10;99.90;;;;;;4967241;28;20023;-77
2023/11/15 13:23:28;;;;;;;2.15;0.70;;;15.10;99.90;;;;;;4966971;28;20371;-77
2023/11/15 13:25:54;;;;;;;2.35;1.05;;;15.10;99.90;;;;;;4962501;28;20019;-77
2023/11/15 13:28:20;;;;;;;1.92;0.63;;;15.10;99.90;;;;;;4970514;28;20422;-77
2023/11/15 13:30:46;;;;;;;2.00;0.90;;;15.10;99.90;;;;;;4968841;28;20154;-76
2023/11/15 13:33:12;;;;;;;0.95;0.68;;;15.10;99.90;;;;;;4966479;28;20489;-76
2023/11/15 13:35:38;;;;;;;4.28;1.02;;;15.20;99.90;;;;;;4965471;28;20022;-76
2023/11/15 13:38:03;;;;;;;3.92;0.95;;;15.20;99.90;;;;;;4966021;28;20105;-77
2023/11/15 13:40:29;;;;;;;2.03;0.73;;;15.20;99.90;;;;;;4967674;28;20027;-76
2023/11/15 13:42:56;;;;;;;2.35;0.80;;;15.20;99.90;;;;;;4967731;28;20632;-78
2023/11/15 13:45:27;;;;;;;1.67;0.60;;;15.00;99.90;;;;;;4966447;28;20021;-78
2023/11/15 13:47:52;;;;;;;1.75;0.80;;;13.60;99.90;;;;;;4964547;28;20101;-78
2023/11/15 13:50:18;;;;;;;4.38;1.10;;;12.60;99.90;;;;;;4966268;28;20050;-78
2023/11/15 13:52:43;;;;;;;1.83;0.77;;;12.20;99.90;;;;;;4967906;28;20031;-78
2023/11/15 13:55:10;;;;;;;9.27;1.00;;;11.90;99.90;;;;;;4966313;28;20057;-78
2023/11/15 13:57:36;;;;;;;1.90;1.02;;;11.80;99.90;;;;;;4961249;28;20058;-78
2023/11/15 14:00:14;;;;;;;3.03;0.80;;;11.70;99.90;;;;;;4961283;28;20397;-77
2023/11/15 14:02:42;;;;;;;0.77;0.73;;;11.70;99.90;;;;;;4962416;28;20027;-78
2023/11/15 14:05:15;;;;;;;1.73;0.95;;;11.60;99.90;;;;;;4962327;28;20023;-78
2023/11/15 14:07:44;;;;;;;2.40;0.90;;;11.60;99.90;;;;;;4965536;28;20029;-78
2023/11/15 14:10:10;;;;;;;3.15;1.27;;;11.60;99.90;;;;;;4962756;28;20019;-78
2023/11/15 14:12:36;;;;;;;3.10;0.88;;;11.60;99.90;;;;;;4961202;28;20031;-78
2023/11/15 14:15:06;;;;;;;3.45;1.08;;;11.60;99.90;;;;;;4967435;28;20041;-78
2023/11/15 14:17:33;;;;;;;1.95;1.20;;;11.50;99.90;;;;;;4967646;28;20081;-77
2023/11/15 14:19:58;;;;;;;2.33;1.08;;;11.60;99.90;;;;;;4962362;28;20118;-78
2023/11/15 14:22:24;;;;;;;1.92;1.00;;;11.60;99.90;;;;;;4961082;28;20121;-76
2023/11/15 14:24:49;;;;;;;1.80;0.70;;;11.50;99.90;;;;;;4964631;28;20030;-78
2023/11/15 14:27:15;;;;;;;3.78;0.90;;;11.50;99.90;;;;;;4965699;28;20392;-77
2023/11/15 14:29:45;;;;;;;3.20;0.90;;;11.50;99.90;;;;;;4960329;28;20042;-78
2023/11/15 14:32:15;;;;;;;3.97;1.23;;;11.50;99.90;;;;;;4962791;28;20050;-78
2023/11/15 14:34:44;;;;;;;1.92;0.90;;;11.50;99.90;;;;;;4962621;28;20102;-77
2023/11/15 14:37:10;;;;;;;0.82;0.80;;;11.40;99.90;;;;;;4966758;28;20030;-78
2023/11/15 14:39:36;;;;;;;0.73;0.70;;;11.40;99.90;;;;;;4966321;28;20038;-79
2023/11/15 14:42:04;;;;;;;5.68;0.93;;;11.40;99.90;;;;;;4966417;28;20659;-78
2023/11/15 14:44:30;;;;;;;4.75;1.00;;;11.40;99.90;;;;;;4961199;28;20019;-79
2023/11/15 14:46:56;;;;;;;2.38;1.25;;;11.40;99.90;;;;;;4960508;28;20077;-77
2023/11/15 14:49:22;;;;;;;3.80;0.90;;;11.40;99.90;;;;;;4961435;28;20042;-77
2023/11/15 14:51:58;;;;;;;1.42;0.93;;;11.40;99.90;;;;;;4965821;28;20027;-78
2023/11/15 14:54:27;;;;;;;1.58;1.13;;;11.40;99.90;;;;;;4959291;28;20114;-78
2023/11/15 14:56:53;;;;;;;1.58;0.90;;;11.40;99.90;;;;;;4967620;28;20029;-78
2023/11/15 14:59:19;;;;;;;3.03;0.85;;;11.40;99.90;;;;;;4964252;28;20030;-77
2023/11/15 15:01:45;;;;;;;1.00;0.90;;;11.40;99.90;;;;;;4960633;28;20042;-78
2023/11/15 15:04:12;;;;;;;2.15;1.10;;;11.40;99.90;;;;;;4963054;28;20042;-77
2023/11/15 15:06:38;;;;;;;2.05;0.95;;;11.40;99.90;;;;;;4963930;28;20078;-78
2023/11/15 15:09:04;;;;;;;3.80;1.10;;;11.40;99.90;;;;;;4965529;28;20027;-77
2023/11/15 15:11:32;;;;;;;2.13;0.80;;;11.40;99.90;;;;;;4964613;28;20023;-78
2023/11/15 15:13:58;;;;;;;1.10;0.90;;;11.40;99.90;;;;;;4964019;28;20023;-77
2023/11/15 15:16:24;;;;;;;5.10;1.35;;;11.40;99.90;;;;;;4966268;28;20403;-78
2023/11/15 15:18:51;;;;;;;1.63;1.02;;;11.40;99.90;;;;;;4965336;28;20567;-78
2023/11/15 15:21:17;;;;;;;3.53;1.10;;;11.40;99.90;;;;;;4967017;28;20582;-78
2023/11/15 15:23:43;;;;;;;1.45;0.70;;;11.40;99.90;;;;;;4969314;28;20368;-78
2023/11/15 15:26:12;;;;;;;3.08;1.00;;;11.40;99.90;;;;;;4970897;28;20081;-78
2023/11/15 15:28:38;;;;;;;3.10;0.80;;;11.40;99.90;;;;;;4970959;28;20029;-78
2023/11/15 15:31:05;;;;;;;3.28;1.10;;;11.30;99.90;;;;;;4970005;28;20015;-78
2023/11/15 15:33:31;;;;;;;2.05;1.02;;;11.40;99.90;;;;;;4974243;28;20484;-77
2023/11/15 15:35:57;;;;;;;2.13;0.90;;;11.30;99.90;;;;;;4969304;28;20029;-77
2023/11/15 15:38:23;;;;;;;3.22;1.30;;;11.30;99.90;;;;;;4970813;28;20023;-78
2023/11/15 15:40:49;;;;;;;3.55;1.38;;;11.30;99.90;;;;;;4970852;28;20085;-78
2023/11/15 15:43:16;;;;;;;5.28;1.30;;;11.30;99.90;;;;;;4969571;28;20639;-78
2023/11/15 15:45:44;;;;;;;3.05;1.13;;;11.30;99.90;;;;;;4985094;28;20558;-78
2023/11/15 15:48:12;;;;;;;5.82;1.25;;;11.30;99.90;;;;;;4970626;28;20026;-77
2023/11/15 15:50:38;;;;;;;2.95;1.20;;;11.30;99.90;;;;;;4962204;28;20011;-78
2023/11/15 15:53:03;;;;;;;4.68;1.25;;;11.30;99.90;;;;;;4965744;28;20554;-78
2023/11/15 15:55:30;;;;;;;4.03;2.00;;;11.30;99.90;;;;;;4969470;28;20031;-78
2023/11/15 15:57:56;;;;;;;3.20;1.20;;;11.30;99.90;;;;;;4963287;28;20023;-78
2023/11/15 16:00:23;;;;;;;3.70;1.42;;;11.30;99.90;;;;;;4970333;28;20031;-77
2023/11/15 16:02:50;;;;;;;1.77;0.90;;;11.30;99.90;;;;;;4970254;28;20022;-78
2023/11/15 16:05:17;;;;;;;5.20;1.27;;;11.30;99.90;;;;;;4966184;28;20027;-78
2023/11/15 16:07:44;;;;;;;2.65;1.20;;;11.30;99.90;;;;;;4969060;28;20015;-78
2023/11/15 16:10:10;;;;;;;5.07;1.10;;;11.30;99.90;;;;;;4970632;28;20051;-78
2023/11/15 16:12:37;;;;;;;3.63;1.27;;;11.20;99.90;;;;;;4968278;28;20030;-79
2023/11/15 16:15:04;;;;;;;2.45;1.33;;;11.20;99.90;;;;;;4970581;28;20749;-78
2023/11/15 16:17:34;;;;;;;1.73;1.10;;;11.30;99.90;;;;;;4965637;28;20385;-77
2023/11/15 16:20:03;;;;;;;2.13;1.38;;;11.20;99.90;;;;;;4965841;28;20026;-78
2023/11/15 16:22:29;;;;;;;2.00;1.10;;;11.30;99.90;;;;;;4968625;28;20026;-77
2023/11/15 16:24:56;;;;;;;1.48;1.10;;;11.30;99.90;;;;;;4970498;28;20046;-76
2023/11/15 16:27:22;;;;;;;5.03;1.58;;;11.30;99.90;;;;;;4966911;28;20039;-77
2023/11/15 16:29:48;;;;;;;5.70;1.20;;;11.20;99.90;;;;;;4956055;28;20022;-79
2023/11/15 16:32:13;;;;;;;3.75;1.48;;;11.20;99.90;;;;;;4967881;28;20035;-78
2023/11/15 16:34:39;;;;;;;3.28;1.83;;;11.20;99.90;;;;;;4973131;28;20029;-78
2023/11/15 16:37:04;;;;;;;1.27;1.00;;;11.20;99.90;;;;;;4970409;28;20496;-78
2023/11/15 16:39:30;;;;;;;6.93;1.52;;;11.20;99.90;;;;;;4970485;28;20026;-78
2023/11/15 16:41:56;;;;;;;2.50;1.38;;;11.20;99.90;;;;;;4970849;28;20496;-78
2023/11/15 16:44:23;;;;;;;6.53;1.50;;;11.20;99.90;;;;;;4971998;28;20503;-78
2023/11/15 16:46:49;;;;;;;2.58;1.45;;;11.20;99.90;;;;;;4973992;28;20089;-78
2023/11/15 16:49:15;;;;;;;2.63;1.33;;;11.20;99.90;;;;;;4991473;28;20117;-78
2023/11/15 16:51:42;;;;;;;2.25;1.55;;;11.20;99.90;;;;;;4971338;28;20083;-78